createdAt,value
2019-05-22T00:01:44.054Z,85.37
2019-05-22T00:04:32.442Z,84.78
2019-05-22T00:07:05.819Z,84.58
2019-05-22T00:09:37.618Z,84.59
2019-05-22T00:12:09.360Z,84.19
2019-05-22T00:14:38.358Z,83.53
2019-05-22T00:17:09.728Z,83.19
2019-05-22T00:19:38.303Z,83.04
2019-05-22T00:22:14.233Z,85.06
2019-05-22T00:24:46.306Z,86.72
2019-05-22T00:27:16.974Z,87.14
2019-05-22T00:29:47.184Z,87.61
2019-05-22T00:32:17.381Z,87.84
2019-05-22T00:34:47.021Z,88.88
2019-05-22T00:37:17.153Z,89.03
2019-05-22T00:39:47.967Z,89.37
2019-05-22T00:42:18.540Z,89.63
2019-05-22T00:44:48.462Z,89.71
2019-05-22T00:47:17.855Z,91.54
2019-05-22T00:49:50.060Z,92.13
2019-05-22T00:52:23.268Z,91.80
2019-05-22T00:55:07.399Z,92.12
2019-05-22T00:57:38.202Z,93.46
2019-05-22T01:00:24.251Z,94.65
2019-05-22T01:02:55.089Z,94.72
2019-05-22T01:05:23.964Z,95.91
2019-05-22T01:07:52.724Z,96.49
2019-05-22T01:10:22.941Z,96.44
2019-05-22T01:12:56.267Z,95.51
2019-05-22T01:15:26.458Z,94.99
2019-05-22T01:17:56.591Z,96.02
2019-05-22T01:20:26.863Z,95.93
2019-05-22T01:22:58.122Z,96.76
2019-05-22T01:25:28.352Z,98.43
2019-05-22T01:27:58.158Z,98.44
2019-05-22T01:30:28.514Z,99.67
2019-05-22T01:33:06.200Z,99.17
2019-05-22T01:35:37.233Z,98.78
2019-05-22T01:38:07.065Z,96.63
2019-05-22T01:40:49.060Z,97.47
2019-05-22T01:43:19.317Z,99.27
2019-05-22T01:45:54.104Z,99.72
2019-05-22T01:48:29.854Z,99.43
2019-05-22T01:50:58.471Z,100.00
2019-05-22T01:53:29.419Z,100.00
2019-05-22T01:56:03.191Z,100.00
2019-05-22T01:58:31.948Z,100.00
2019-05-22T02:01:02.545Z,100.00
2019-05-22T02:03:32.356Z,100.00
2019-05-22T02:06:01.517Z,99.95
2019-05-22T02:08:32.320Z,100.00
2019-05-22T02:11:01.709Z,100.00
2019-05-22T02:13:37.671Z,100.00
2019-05-22T02:16:08.439Z,100.00
2019-05-22T02:18:38.637Z,100.00
2019-05-22T02:21:07.577Z,100.00
2019-05-22T02:23:38.173Z,100.00
2019-05-22T02:26:09.635Z,100.00
2019-05-22T02:28:39.013Z,100.00
2019-05-22T02:31:07.656Z,100.00
2019-05-22T02:33:38.719Z,100.00
2019-05-22T02:36:08.041Z,100.00
2019-05-22T02:38:37.386Z,100.00
2019-05-22T02:41:08.392Z,100.00
2019-05-22T02:43:37.338Z,100.00
2019-05-22T02:46:07.651Z,100.00
2019-05-22T02:48:37.177Z,100.00
2019-05-22T02:51:06.061Z,100.00
2019-05-22T02:53:34.787Z,100.00
2019-05-22T02:56:04.028Z,100.00
2019-05-22T02:58:34.773Z,100.00
2019-05-22T03:01:05.583Z,100.00
2019-05-22T03:03:35.377Z,100.00
2019-05-22T03:06:06.954Z,100.00
2019-05-22T03:08:58.347Z,100.00
2019-05-22T03:11:39.727Z,100.00
2019-05-22T03:14:09.388Z,100.00
2019-05-22T03:16:56.480Z,100.00
2019-05-22T03:19:34.167Z,100.00
2019-05-22T03:22:21.340Z,100.00
2019-05-22T03:24:51.529Z,100.00
2019-05-22T03:27:25.675Z,100.00
2019-05-22T03:29:56.680Z,100.00
2019-05-22T03:32:25.443Z,93.42
2019-05-22T03:34:55.040Z,86.59
2019-05-22T03:37:25.096Z,78.06
2019-05-22T03:39:53.764Z,72.23
2019-05-22T03:42:22.848Z,69.48
2019-05-22T03:44:53.642Z,64.94
2019-05-22T03:47:23.570Z,63.85
2019-05-22T03:49:53.102Z,60.92
2019-05-22T03:52:21.834Z,58.58
2019-05-22T03:54:51.114Z,55.32
2019-05-22T03:57:21.443Z,54.63
2019-05-22T03:59:50.582Z,51.99
2019-05-22T04:02:20.123Z,50.01
2019-05-22T04:04:49.492Z,51.84
2019-05-22T04:07:19.792Z,51.02
2019-05-22T04:09:49.515Z,49.85
2019-05-22T04:12:18.598Z,49.94
2019-05-22T04:14:47.163Z,49.63
2019-05-22T04:17:16.707Z,47.46
2019-05-22T04:19:51.081Z,46.03
2019-05-22T04:22:18.999Z,45.52
2019-05-22T04:24:47.797Z,44.37
2019-05-22T04:27:16.523Z,41.74
2019-05-22T04:29:45.219Z,41.89
2019-05-22T04:32:15.497Z,40.88
2019-05-22T04:34:45.041Z,40.10
2019-05-22T04:37:13.952Z,40.57
2019-05-22T04:39:45.448Z,40.80
2019-05-22T04:42:14.696Z,38.76
2019-05-22T04:45:03.307Z,39.15
2019-05-22T04:47:34.871Z,38.06
2019-05-22T04:50:07.932Z,37.28
2019-05-22T04:52:36.509Z,37.52
2019-05-22T04:55:10.636Z,36.83
2019-05-22T04:57:39.667Z,36.53
2019-05-22T05:00:11.682Z,37.03
2019-05-22T05:02:40.933Z,36.30
2019-05-22T05:05:12.538Z,34.40
2019-05-22T05:07:41.724Z,35.08
2019-05-22T05:10:10.888Z,33.80
2019-05-22T05:12:41.086Z,32.97
2019-05-22T05:15:10.058Z,33.92
2019-05-22T05:17:39.501Z,33.77
2019-05-22T05:20:21.582Z,35.30
2019-05-22T05:22:45.433Z,34.18
2019-05-22T05:25:19.146Z,32.87
2019-05-22T05:27:48.144Z,33.88
2019-05-22T05:30:19.710Z,31.87
2019-05-22T05:32:48.450Z,30.38
2019-05-22T05:35:20.171Z,30.92
2019-05-22T05:37:49.834Z,31.64
2019-05-22T05:40:27.799Z,29.93
2019-05-22T05:42:57.350Z,29.52
2019-05-22T05:45:27.574Z,29.74
2019-05-22T05:47:57.799Z,28.01
2019-05-22T05:50:38.943Z,29.09
2019-05-22T05:52:59.995Z,29.44
2019-05-22T05:55:30.746Z,29.57
2019-05-22T05:58:15.296Z,28.23
2019-05-22T06:00:51.866Z,31.01
2019-05-22T06:03:32.279Z,33.43
2019-05-22T06:06:21.674Z,32.08
2019-05-22T06:08:50.275Z,31.60
2019-05-22T06:11:53.267Z,28.85
2019-05-22T06:14:25.811Z,27.59
2019-05-22T06:17:20.291Z,26.57
2019-05-22T06:19:57.584Z,26.33
2019-05-22T06:22:26.134Z,27.77
2019-05-22T06:24:58.306Z,27.22
2019-05-22T06:27:44.193Z,27.23
2019-05-22T06:30:21.805Z,25.69
2019-05-22T06:33:12.154Z,26.64
2019-05-22T06:35:40.991Z,25.75
2019-05-22T06:38:21.761Z,25.93
2019-05-22T06:40:51.518Z,26.75
2019-05-22T06:43:23.981Z,26.86
2019-05-22T06:45:54.807Z,26.38
2019-05-22T06:48:23.776Z,27.81
2019-05-22T06:50:55.311Z,29.83
2019-05-22T06:53:24.200Z,28.30
2019-05-22T06:55:52.827Z,26.63
2019-05-22T06:58:21.856Z,24.28
2019-05-22T07:00:50.821Z,24.13
2019-05-22T07:03:20.642Z,24.51
2019-05-22T07:05:50.240Z,24.83
2019-05-22T07:08:19.771Z,23.93
2019-05-22T07:10:48.916Z,23.28
2019-05-22T07:13:18.291Z,23.16
2019-05-22T07:15:48.764Z,22.14
2019-05-22T07:18:18.045Z,22.92
2019-05-22T07:20:48.877Z,25.12
2019-05-22T07:23:20.665Z,29.69
2019-05-22T07:25:51.138Z,30.86
2019-05-22T07:28:20.672Z,33.25
2019-05-22T07:30:50.981Z,35.41
2019-05-22T07:33:21.012Z,34.69
2019-05-22T07:36:08.625Z,35.24
2019-05-22T07:38:21.280Z,34.66
2019-05-22T07:40:51.570Z,39.69
2019-05-22T07:43:22.069Z,42.05
2019-05-22T07:45:51.774Z,41.09
2019-05-22T07:48:21.754Z,43.59
2019-05-22T07:50:52.105Z,45.14
2019-05-22T07:53:21.018Z,45.60
2019-05-22T07:55:51.764Z,46.85
2019-05-22T07:58:20.904Z,44.13
2019-05-22T08:00:55.035Z,45.05
2019-05-22T08:05:54.899Z,45.06
2019-05-22T08:08:25.056Z,44.04
2019-05-22T08:10:55.973Z,45.74
2019-05-22T08:13:26.477Z,43.53
2019-05-22T08:15:55.365Z,44.32
2019-05-22T08:18:25.183Z,43.61
2019-05-22T08:20:53.821Z,41.59
2019-05-22T08:23:23.275Z,41.02
2019-05-22T08:25:52.114Z,38.68
2019-05-22T08:28:21.225Z,39.47
2019-05-22T08:30:50.356Z,41.44
2019-05-22T08:33:20.864Z,41.15
2019-05-22T08:35:49.654Z,39.03
2019-05-22T08:38:19.786Z,36.86
2019-05-22T08:40:49.294Z,36.25
2019-05-22T08:43:18.839Z,37.58
2019-05-22T08:45:47.894Z,39.10
2019-05-22T08:48:17.535Z,40.43
2019-05-22T08:50:46.571Z,41.65
2019-05-22T08:53:16.122Z,40.77
2019-05-22T08:55:45.829Z,41.07
2019-05-22T08:58:16.318Z,41.87
2019-05-22T09:00:45.916Z,41.96
2019-05-22T09:03:15.531Z,41.15
2019-05-22T09:05:44.339Z,40.03
2019-05-22T09:08:13.015Z,39.24
2019-05-22T09:10:41.946Z,40.07
2019-05-22T09:13:10.548Z,39.32
2019-05-22T09:15:40.985Z,40.30
2019-05-22T09:18:10.214Z,42.61
2019-05-22T09:20:49.327Z,43.26
2019-05-22T09:23:11.604Z,43.82
2019-05-22T09:25:40.234Z,43.24
2019-05-22T09:28:09.150Z,40.36
2019-05-22T09:30:38.010Z,38.45
2019-05-22T09:33:08.392Z,38.22
2019-05-22T09:35:37.180Z,38.32
2019-05-22T09:38:05.870Z,37.86
2019-05-22T09:40:34.875Z,35.82
2019-05-22T09:43:05.182Z,37.49
2019-05-22T09:45:35.832Z,38.82
2019-05-22T09:48:05.760Z,38.06
2019-05-22T09:50:34.968Z,37.43
2019-05-22T09:53:05.315Z,34.77
2019-05-22T09:55:33.975Z,35.19
2019-05-22T09:58:02.614Z,33.12
2019-05-22T10:00:31.865Z,33.30
2019-05-22T10:03:00.978Z,33.83
2019-05-22T10:05:30.821Z,32.64
2019-05-22T10:08:01.898Z,32.96
2019-05-22T10:10:31.265Z,31.78
2019-05-22T10:13:00.381Z,30.84
2019-05-22T10:15:31.185Z,30.72
2019-05-22T10:18:00.232Z,31.78
2019-05-22T10:20:29.077Z,34.23
2019-05-22T10:23:14.075Z,36.84
2019-05-22T10:25:29.045Z,37.88
2019-05-22T10:27:59.437Z,38.79
2019-05-22T10:30:28.610Z,39.60
2019-05-22T10:32:57.263Z,40.14
2019-05-22T10:35:27.601Z,40.60
2019-05-22T10:37:56.842Z,39.85
2019-05-22T10:40:26.549Z,40.39
2019-05-22T10:42:56.335Z,40.82
2019-05-22T10:45:26.062Z,41.83
2019-05-22T10:47:54.747Z,41.16
2019-05-22T10:50:24.341Z,41.11
2019-05-22T10:52:54.894Z,39.35
2019-05-22T10:55:23.913Z,38.50
2019-05-22T10:57:52.754Z,40.44
2019-05-22T11:00:23.386Z,40.14
2019-05-22T11:02:52.335Z,38.96
2019-05-22T11:05:22.087Z,38.49
2019-05-22T11:07:52.357Z,39.33
2019-05-22T11:10:24.409Z,40.04
2019-05-22T11:12:53.938Z,39.22
2019-05-22T11:15:23.681Z,40.53
2019-05-22T11:17:52.998Z,39.58
2019-05-22T11:20:22.762Z,38.64
2019-05-22T11:22:51.469Z,36.77
2019-05-22T11:25:20.407Z,37.11
2019-05-22T11:27:49.234Z,40.35
2019-05-22T11:30:19.456Z,39.57
2019-05-22T11:32:48.743Z,39.60
2019-05-22T11:35:18.322Z,40.41
2019-05-22T11:37:47.927Z,39.40
2019-05-22T11:40:18.025Z,38.96
2019-05-22T11:42:46.830Z,37.88
2019-05-22T11:45:16.942Z,38.39
2019-05-22T11:47:45.766Z,39.74
2019-05-22T11:50:16.426Z,39.89
2019-05-22T11:52:46.626Z,39.26
2019-05-22T11:55:16.132Z,38.01
2019-05-22T11:57:46.228Z,36.65
2019-05-22T12:00:16.452Z,36.19
2019-05-22T12:02:46.607Z,36.88
2019-05-22T12:05:16.320Z,37.55
2019-05-22T12:07:46.228Z,36.28
2019-05-22T12:10:15.736Z,37.16
2019-05-22T12:12:45.382Z,37.39
2019-05-22T12:15:14.988Z,36.53
2019-05-22T12:17:45.036Z,36.14
2019-05-22T12:20:16.746Z,36.25
2019-05-22T12:22:45.535Z,35.50
2019-05-22T12:25:14.711Z,34.62
2019-05-22T12:27:43.448Z,34.76
2019-05-22T12:30:14.591Z,34.16
2019-05-22T12:32:43.545Z,33.95
2019-05-22T12:35:15.107Z,34.04
2019-05-22T12:37:44.302Z,34.11
2019-05-22T12:40:16.280Z,33.49
2019-05-22T12:42:45.475Z,31.90
2019-05-22T12:45:17.085Z,32.87
2019-05-22T12:47:46.735Z,33.15
2019-05-22T12:50:17.077Z,33.18
2019-05-22T12:52:48.744Z,33.67
2019-05-22T12:55:18.561Z,32.79
2019-05-22T12:57:49.174Z,32.64
2019-05-22T13:00:21.628Z,31.97
2019-05-22T13:02:51.246Z,31.96
2019-05-22T13:05:20.713Z,32.29
2019-05-22T13:07:49.717Z,32.79
2019-05-22T13:10:19.798Z,32.20
2019-05-22T13:12:48.655Z,32.08
2019-05-22T13:15:17.641Z,32.69
2019-05-22T13:17:46.873Z,32.96
2019-05-22T13:20:40.547Z,33.46
2019-05-22T13:22:54.046Z,34.10
2019-05-22T13:25:26.313Z,33.38
2019-05-22T13:27:55.225Z,32.81
2019-05-22T13:30:28.478Z,33.09
2019-05-22T13:32:57.060Z,33.14
2019-05-22T13:35:26.822Z,34.86
2019-05-22T13:37:58.111Z,34.44
2019-05-22T13:40:29.833Z,33.52
2019-05-22T13:42:59.452Z,32.46
2019-05-22T13:45:30.338Z,32.98
2019-05-22T13:48:00.106Z,33.85
2019-05-22T13:50:29.416Z,34.76
2019-05-22T13:53:00.754Z,34.70
2019-05-22T13:55:30.335Z,34.77
2019-05-22T13:58:00.215Z,34.35
2019-05-22T14:00:29.595Z,34.79
2019-05-22T14:02:58.753Z,35.24
2019-05-22T14:05:29.491Z,35.18
2019-05-22T14:07:58.280Z,35.48
2019-05-22T14:10:28.895Z,35.90
2019-05-22T14:12:57.811Z,34.58
2019-05-22T14:15:26.854Z,35.44
2019-05-22T14:17:55.690Z,34.75
2019-05-22T14:20:24.722Z,34.47
2019-05-22T14:22:54.005Z,35.67
2019-05-22T14:25:24.246Z,34.76
2019-05-22T14:27:53.052Z,35.24
2019-05-22T14:30:24.248Z,35.58
2019-05-22T14:32:52.915Z,35.60
2019-05-22T14:35:23.587Z,36.44
2019-05-22T14:37:52.201Z,35.12
2019-05-22T14:40:21.304Z,35.48
2019-05-22T14:42:50.104Z,34.79
2019-05-22T14:45:19.203Z,34.79
2019-05-22T14:47:47.807Z,34.53
2019-05-22T14:50:17.119Z,34.31
2019-05-22T14:52:45.900Z,35.10
2019-05-22T14:55:15.734Z,34.04
2019-05-22T14:57:45.029Z,34.32
2019-05-22T15:00:17.846Z,34.32
2019-05-22T15:02:53.428Z,34.12
2019-05-22T15:05:17.785Z,34.24
2019-05-22T15:07:46.451Z,34.07
2019-05-22T15:10:17.001Z,34.07
2019-05-22T15:12:46.223Z,34.18
2019-05-22T15:15:15.976Z,34.80
2019-05-22T15:17:44.978Z,34.08
2019-05-22T15:20:20.788Z,34.55
2019-05-22T15:22:50.067Z,34.89
2019-05-22T15:25:19.076Z,35.06
2019-05-22T15:27:47.808Z,36.15
2019-05-22T15:30:16.984Z,36.06
2019-05-22T15:32:45.540Z,36.49
2019-05-22T15:35:14.481Z,35.96
2019-05-22T15:37:43.735Z,36.08
2019-05-22T15:40:12.653Z,36.50
2019-05-22T15:42:45.557Z,37.05
2019-05-22T15:45:17.673Z,36.43
2019-05-22T15:47:55.542Z,36.31
2019-05-22T15:50:23.839Z,36.79
2019-05-22T15:52:58.253Z,36.45
2019-05-22T15:55:31.276Z,36.66
2019-05-22T15:58:00.754Z,36.76
2019-05-22T16:00:34.654Z,35.86
2019-05-22T16:03:12.716Z,36.27
2019-05-22T16:05:42.331Z,36.32
2019-05-22T16:08:11.709Z,35.86
2019-05-22T16:10:43.348Z,36.34
2019-05-22T16:13:14.854Z,36.85
2019-05-22T16:15:45.301Z,37.56
2019-05-22T16:18:16.238Z,38.57
2019-05-22T16:20:45.371Z,46.95
2019-05-22T16:23:14.463Z,58.83
2019-05-22T16:25:43.137Z,60.92
2019-05-22T16:28:14.026Z,55.84
2019-05-22T16:30:43.832Z,56.15
2019-05-22T16:33:13.973Z,60.46
2019-05-22T16:35:42.604Z,64.89
2019-05-22T16:38:11.548Z,69.52
2019-05-22T16:40:41.399Z,80.79
2019-05-22T16:43:10.180Z,80.71
2019-05-22T16:45:39.314Z,79.22
2019-05-22T16:48:26.097Z,74.54
2019-05-22T16:50:42.062Z,71.21
2019-05-22T16:53:13.164Z,69.11
2019-05-22T16:55:42.650Z,72.06
2019-05-22T16:58:12.950Z,76.83
2019-05-22T17:00:44.259Z,80.30
2019-05-22T17:03:16.223Z,82.63
2019-05-22T17:05:45.246Z,89.09
2019-05-22T17:08:15.085Z,90.64
2019-05-22T17:10:43.857Z,90.61
2019-05-22T17:13:14.815Z,90.14
2019-05-22T17:15:44.126Z,88.98
2019-05-22T17:18:15.483Z,94.54
2019-05-22T17:20:44.871Z,95.08
2019-05-22T17:23:13.763Z,93.27
2019-05-22T17:25:43.358Z,91.86
2019-05-22T17:28:12.656Z,90.78
2019-05-22T17:30:42.164Z,97.96
2019-05-22T17:33:12.215Z,99.88
2019-05-22T17:35:42.112Z,96.77
2019-05-22T17:38:11.141Z,97.34
2019-05-22T17:40:41.487Z,96.46
2019-05-22T17:43:11.026Z,90.59
2019-05-22T17:45:42.855Z,88.78
2019-05-22T17:48:14.607Z,88.51
2019-05-22T17:50:44.654Z,86.44
2019-05-22T17:53:14.035Z,85.94
2019-05-22T17:55:43.504Z,84.10
2019-05-22T17:58:12.636Z,84.43
2019-05-22T18:00:43.423Z,83.49
2019-05-22T18:03:12.304Z,92.30
2019-05-22T18:05:41.173Z,86.97
2019-05-22T18:08:10.819Z,79.25
2019-05-22T18:10:41.733Z,87.29
2019-05-22T18:13:12.173Z,86.23
2019-05-22T18:15:41.898Z,85.78
2019-05-22T18:18:11.417Z,88.39
2019-05-22T18:20:43.782Z,86.96
2019-05-22T18:23:11.202Z,86.55
2019-05-22T18:25:39.912Z,81.73
2019-05-22T18:28:09.859Z,81.25
2019-05-22T18:30:40.556Z,81.54
2019-05-22T18:33:09.111Z,81.35
2019-05-22T18:35:38.010Z,79.20
2019-05-22T18:38:06.793Z,77.27
2019-05-22T18:40:35.515Z,78.40
2019-05-22T18:43:04.360Z,79.98
2019-05-22T18:45:34.668Z,79.20
2019-05-22T18:48:03.444Z,77.78
2019-05-22T18:50:32.922Z,78.09
2019-05-22T18:53:01.979Z,82.57
2019-05-22T18:55:30.571Z,89.82
2019-05-22T18:57:59.410Z,94.23
2019-05-22T19:00:29.819Z,95.69
2019-05-22T19:02:58.935Z,99.08
2019-05-22T19:05:30.628Z,99.62
2019-05-22T19:07:59.331Z,100.00
2019-05-22T19:10:28.682Z,97.79
2019-05-22T19:12:57.795Z,95.52
2019-05-22T19:15:27.065Z,95.20
2019-05-22T19:17:55.607Z,100.00
2019-05-22T19:20:24.532Z,100.00
2019-05-22T19:23:00.534Z,100.00
2019-05-22T19:25:24.559Z,100.00
2019-05-22T19:27:53.391Z,100.00
2019-05-22T19:30:22.438Z,100.00
2019-05-22T19:32:51.761Z,100.00
2019-05-22T19:35:20.592Z,100.00
2019-05-22T19:37:50.245Z,100.00
2019-05-22T19:40:19.779Z,100.00
2019-05-22T19:42:48.797Z,100.00
2019-05-22T19:45:18.951Z,100.00
2019-05-22T19:47:52.892Z,100.00
2019-05-22T19:50:23.917Z,100.00
2019-05-22T19:52:53.494Z,100.00
2019-05-22T19:55:23.293Z,100.00
2019-05-22T19:57:52.854Z,100.00
2019-05-22T20:00:22.987Z,100.00
2019-05-22T20:02:51.622Z,100.00
2019-05-22T20:05:22.974Z,100.00
2019-05-22T20:07:52.157Z,100.00
2019-05-22T20:10:21.867Z,100.00
2019-05-22T20:12:50.880Z,100.00
2019-05-22T20:15:21.695Z,100.00
2019-05-22T20:17:50.528Z,100.00
2019-05-22T20:20:20.074Z,100.00
2019-05-22T20:22:49.802Z,100.00
2019-05-22T20:25:20.502Z,100.00
2019-05-22T20:27:49.375Z,100.00
2019-05-22T20:30:20.249Z,100.00
2019-05-22T20:32:49.425Z,100.00
2019-05-22T20:35:18.889Z,100.00
2019-05-22T20:37:48.098Z,100.00
2019-05-22T20:40:20.363Z,100.00
2019-05-22T20:42:49.172Z,100.00
2019-05-22T20:45:21.097Z,100.00
2019-05-22T20:47:54.401Z,100.00
2019-05-22T20:50:24.601Z,100.00
2019-05-22T20:52:53.544Z,100.00
2019-05-22T20:55:22.646Z,100.00
2019-05-22T20:57:53.048Z,100.00
2019-05-22T21:00:23.586Z,100.00
2019-05-22T21:02:55.337Z,100.00
2019-05-22T21:05:24.366Z,100.00
2019-05-22T21:07:55.899Z,100.00
2019-05-22T21:10:25.554Z,100.00
2019-05-22T21:12:55.662Z,100.00
2019-05-22T21:15:24.575Z,100.00
2019-05-22T21:17:54.883Z,100.00
2019-05-22T21:20:25.149Z,100.00
2019-05-22T21:22:54.017Z,100.00
2019-05-22T21:25:23.456Z,100.00
2019-05-22T21:27:52.190Z,100.00
2019-05-22T21:30:21.386Z,100.00
2019-05-22T21:32:50.487Z,100.00
2019-05-22T21:35:19.846Z,100.00
2019-05-22T21:37:48.550Z,100.00
2019-05-22T21:40:20.289Z,100.00
2019-05-22T21:42:51.251Z,100.00
2019-05-22T21:45:20.702Z,100.00
2019-05-22T21:47:49.693Z,100.00
2019-05-22T21:50:20.489Z,100.00
2019-05-22T21:52:49.081Z,100.00
2019-05-22T21:55:19.336Z,100.00
2019-05-22T21:57:47.965Z,100.00
2019-05-22T22:00:41.718Z,100.00
2019-05-22T22:03:19.273Z,100.00
2019-05-22T22:05:48.246Z,100.00
2019-05-22T22:08:16.919Z,100.00
2019-05-22T22:10:46.324Z,100.00
2019-05-22T22:13:15.086Z,100.00
2019-05-22T22:15:44.440Z,100.00
2019-05-22T22:18:13.211Z,100.00
2019-05-22T22:20:42.880Z,100.00
2019-05-22T22:23:13.407Z,100.00
2019-05-22T22:25:42.751Z,100.00
2019-05-22T22:28:13.554Z,100.00
2019-05-22T22:30:46.777Z,100.00
2019-05-22T22:33:17.797Z,100.00
2019-05-22T22:35:47.374Z,100.00
2019-05-22T22:38:16.035Z,100.00
2019-05-22T22:40:45.070Z,100.00
2019-05-22T22:43:14.275Z,100.00
2019-05-22T22:45:47.791Z,100.00
2019-05-22T22:48:33.112Z,100.00
2019-05-22T22:51:04.057Z,100.00
2019-05-22T22:53:32.665Z,100.00
2019-05-22T22:56:01.544Z,100.00
2019-05-22T22:58:30.755Z,100.00
2019-05-22T23:01:00.258Z,100.00
2019-05-22T23:03:30.079Z,100.00
2019-05-22T23:05:59.428Z,100.00
2019-05-22T23:08:33.102Z,100.00
2019-05-22T23:11:01.730Z,100.00
2019-05-22T23:13:30.840Z,100.00
2019-05-22T23:16:00.342Z,100.00
2019-05-22T23:18:45.378Z,100.00
2019-05-22T23:21:16.826Z,100.00
2019-05-22T23:23:44.229Z,100.00
2019-05-22T23:26:13.279Z,100.00
2019-05-22T23:28:42.902Z,100.00
2019-05-22T23:31:12.600Z,100.00
2019-05-22T23:33:42.959Z,100.00
2019-05-22T23:36:13.581Z,100.00
2019-05-22T23:38:43.080Z,100.00
2019-05-22T23:41:13.972Z,100.00
2019-05-22T23:43:44.838Z,100.00
2019-05-22T23:46:14.889Z,100.00
2019-05-22T23:48:43.935Z,100.00
2019-05-22T23:51:12.871Z,100.00
2019-05-22T23:53:42.804Z,100.00
2019-05-22T23:56:11.746Z,100.00
2019-05-22T23:58:52.356Z,100.00
